Monitor, Washington
Current Conditions -  °F | °C
As of 12:55 AM on Friday 19 Dec 2014 (Local Time) from KEAT Reporting Station
Haze Haze  
Wind Chill: 37°   Ceiling: 700
Heat Index: 37°   Visibility: 4mi
Dew Point: 35°   Wind: 3mph
Humidity: 93%   Direction: 30°NNE
Pressure: 29.87"   Gusts: NA
Location:  47.49°N, 120.42°W
Report Text: KEAT 190855Z AUTO 03003KT 4SM BR OVC007 03/02 A2987 RMK AO2 RAB08E18 CIG 004V009 SLP124 P0000 60000 T00280017 56013
Loading
Personal Weather Stations






























Interactive Weather Map New forecast layout! Learn more

10-Day Weather Forecast

Advertisements
Track Severe Weather on mobile